sensor_id;sensor_type;location;lat;lon;timestamp;temperature;humidity
18189;DHT22;9219;50.396;8.546;2023-04-29T00:02:41;11.80;99.90
18189;DHT22;9219;50.396;8.546;2023-04-29T00:05:09;11.70;99.90
18189;DHT22;9219;50.396;8.546;2023-04-29T00:07:37;11.70;99.90
18189;DHT22;9219;50.396;8.546;2023-04-29T00:10:07;11.60;99.90
18189;DHT22;9219;50.396;8.546;2023-04-29T00:12:35;11.60;99.90
18189;DHT22;9219;50.396;8.546;2023-04-29T00:15:04;11.60;99.90
18189;DHT22;9219;50.396;8.546;2023-04-29T00:17:35;11.50;99.90
18189;DHT22;9219;50.396;8.546;2023-04-29T00:25:09;11.70;99.90
18189;DHT22;9219;50.396;8.546;2023-04-29T00:27:37;11.80;99.90
18189;DHT22;9219;50.396;8.546;2023-04-29T00:30:06;11.90;99.90
18189;DHT22;9219;50.396;8.546;2023-04-29T00:32:34;11.80;99.90
18189;DHT22;9219;50.396;8.546;2023-04-29T00:35:02;11.90;99.90
18189;DHT22;9219;50.396;8.546;2023-04-29T00:37:29;12.00;99.90
18189;DHT22;9219;50.396;8.546;2023-04-29T00:39:57;12.10;99.90
18189;DHT22;9219;50.396;8.546;2023-04-29T00:42:25;12.00;99.90
18189;DHT22;9219;50.396;8.546;2023-04-29T00:49:57;11.90;99.90
18189;DHT22;9219;50.396;8.546;2023-04-29T00:52:25;11.70;99.90
18189;DHT22;9219;50.396;8.546;2023-04-29T00:54:55;11.60;99.90
18189;DHT22;9219;50.396;8.546;2023-04-29T00:57:23;11.50;99.90
18189;DHT22;9219;50.396;8.546;2023-04-29T00:59:54;11.40;99.90
18189;DHT22;9219;50.396;8.546;2023-04-29T01:02:22;11.50;99.90
18189;DHT22;9219;50.396;8.546;2023-04-29T01:04:50;11.40;99.90
18189;DHT22;9219;50.396;8.546;2023-04-29T01:10:26;11.40;99.90
18189;DHT22;9219;50.396;8.546;2023-04-29T01:13:06;11.30;99.90
18189;DHT22;9219;50.396;8.546;2023-04-29T01:15:42;11.30;99.90
18189;DHT22;9219;50.396;8.546;2023-04-29T01:18:19;11.30;99.90
18189;DHT22;9219;50.396;8.546;2023-04-29T01:20:51;11.30;99.90
18189;DHT22;9219;50.396;8.546;2023-04-29T01:23:19;11.20;99.90
18189;DHT22;9219;50.396;8.546;2023-04-29T01:25:46;11.30;99.90
18189;DHT22;9219;50.396;8.546;2023-04-29T01:33:26;11.50;99.90
18189;DHT22;9219;50.396;8.546;2023-04-29T01:36:07;11.40;99.90
18189;DHT22;9219;50.396;8.546;2023-04-29T01:38:40;11.40;99.90
18189;DHT22;9219;50.396;8.546;2023-04-29T01:41:12;11.50;99.90
18189;DHT22;9219;50.396;8.546;2023-04-29T01:43:41;11.40;99.90
18189;DHT22;9219;50.396;8.546;2023-04-29T01:46:09;11.50;99.90
18189;DHT22;9219;50.396;8.546;2023-04-29T01:48:38;11.60;99.90
18189;DHT22;9219;50.396;8.546;2023-04-29T01:56:10;11.90;99.90
18189;DHT22;9219;50.396;8.546;2023-04-29T01:58:38;11.60;99.90
18189;DHT22;9219;50.396;8.546;2023-04-29T02:01:05;11.50;99.90
18189;DHT22;9219;50.396;8.546;2023-04-29T02:03:35;11.30;99.90
18189;DHT22;9219;50.396;8.546;2023-04-29T02:06:04;11.40;99.90
18189;DHT22;9219;50.396;8.546;2023-04-29T02:08:32;11.30;99.90
18189;DHT22;9219;50.396;8.546;2023-04-29T02:10:59;11.40;99.90
18189;DHT22;9219;50.396;8.546;2023-04-29T02:16:13;11.30;99.90
18189;DHT22;9219;50.396;8.546;2023-04-29T02:18:43;11.00;99.90
18189;DHT22;9219;50.396;8.546;2023-04-29T02:21:10;11.10;99.90
18189;DHT22;9219;50.396;8.546;2023-04-29T02:23:37;10.90;99.90
18189;DHT22;9219;50.396;8.546;2023-04-29T02:26:05;10.80;99.90
18189;DHT22;9219;50.396;8.546;2023-04-29T02:28:33;10.70;99.90
18189;DHT22;9219;50.396;8.546;2023-04-29T02:31:00;10.60;99.90
18189;DHT22;9219;50.396;8.546;2023-04-29T02:36:22;10.60;99.90
18189;DHT22;9219;50.396;8.546;2023-04-29T02:38:51;10.50;99.90
18189;DHT22;9219;50.396;8.546;2023-04-29T02:41:20;10.40;99.90
18189;DHT22;9219;50.396;8.546;2023-04-29T02:43:48;10.40;99.90
18189;DHT22;9219;50.396;8.546;2023-04-29T02:46:15;10.50;99.90
18189;DHT22;9219;50.396;8.546;2023-04-29T02:48:43;10.70;99.90
18189;DHT22;9219;50.396;8.546;2023-04-29T02:51:11;10.60;99.90
18189;DHT22;9219;50.396;8.546;2023-04-29T02:56:20;10.60;99.90
18189;DHT22;9219;50.396;8.546;2023-04-29T02:58:48;10.70;99.90
18189;DHT22;9219;50.396;8.546;2023-04-29T03:01:15;10.60;99.90
18189;DHT22;9219;50.396;8.546;2023-04-29T03:03:42;10.50;99.90
18189;DHT22;9219;50.396;8.546;2023-04-29T03:06:12;10.50;99.90
18189;DHT22;9219;50.396;8.546;2023-04-29T03:08:39;10.50;99.90
18189;DHT22;9219;50.396;8.546;2023-04-29T03:11:06;10.40;99.90
18189;DHT22;9219;50.396;8.546;2023-04-29T03:13:35;10.40;99.90
18189;DHT22;9219;50.396;8.546;2023-04-29T03:21:02;10.30;99.90
18189;DHT22;9219;50.396;8.546;2023-04-29T03:23:34;10.20;99.90
18189;DHT22;9219;50.396;8.546;2023-04-29T03:26:01;10.10;99.90
18189;DHT22;9219;50.396;8.546;2023-04-29T03:28:31;10.10;99.90
18189;DHT22;9219;50.396;8.546;2023-04-29T03:30:58;10.10;99.90
18189;DHT22;9219;50.396;8.546;2023-04-29T03:33:25;10.10;99.90
18189;DHT22;9219;50.396;8.546;2023-04-29T03:35:53;10.10;99.90
18189;DHT22;9219;50.396;8.546;2023-04-29T03:43:25;10.30;99.90
18189;DHT22;9219;50.396;8.546;2023-04-29T03:45:53;10.00;99.90
18189;DHT22;9219;50.396;8.546;2023-04-29T03:48:20;10.00;99.90
18189;DHT22;9219;50.396;8.546;2023-04-29T03:50:48;9.90;99.90
18189;DHT22;9219;50.396;8.546;2023-04-29T03:53:16;9.90;99.90
18189;DHT22;9219;50.396;8.546;2023-04-29T03:55:44;9.80;99.90
18189;DHT22;9219;50.396;8.546;2023-04-29T03:58:11;9.80;99.90
18189;DHT22;9219;50.396;8.546;2023-04-29T04:03:19;9.90;99.90
18189;DHT22;9219;50.396;8.546;2023-04-29T04:05:48;9.90;99.90
18189;DHT22;9219;50.396;8.546;2023-04-29T04:08:15;9.80;99.90
18189;DHT22;9219;50.396;8.546;2023-04-29T04:10:42;9.80;99.90
18189;DHT22;9219;50.396;8.546;2023-04-29T04:13:10;9.70;99.90
18189;DHT22;9219;50.396;8.546;2023-04-29T04:15:38;9.60;99.90
18189;DHT22;9219;50.396;8.546;2023-04-29T04:18:05;9.40;99.90
18189;DHT22;9219;50.396;8.546;2023-04-29T04:23:18;9.50;99.90
18189;DHT22;9219;50.396;8.546;2023-04-29T04:25:46;9.30;99.90
18189;DHT22;9219;50.396;8.546;2023-04-29T04:28:13;9.30;99.90
18189;DHT22;9219;50.396;8.546;2023-04-29T04:30:41;9.20;99.90
18189;DHT22;9219;50.396;8.546;2023-04-29T04:33:08;9.20;99.90
18189;DHT22;9219;50.396;8.546;2023-04-29T04:35:36;9.10;99.90
18189;DHT22;9219;50.396;8.546;2023-04-29T04:38:04;9.20;99.90
18189;DHT22;9219;50.396;8.546;2023-04-29T04:40:32;9.10;99.90
18189;DHT22;9219;50.396;8.546;2023-04-29T04:48:06;9.20;99.90
18189;DHT22;9219;50.396;8.546;2023-04-29T04:50:33;9.30;99.90
18189;DHT22;9219;50.396;8.546;2023-04-29T04:53:00;9.30;99.90
18189;DHT22;9219;50.396;8.546;2023-04-29T04:55:28;9.30;99.90
18189;DHT22;9219;50.396;8.546;2023-04-29T04:57:58;9.20;99.90
18189;DHT22;9219;50.396;8.546;2023-04-29T05:00:26;9.30;99.90
18189;DHT22;9219;50.396;8.546;2023-04-29T05:02:53;9.20;99.90
18189;DHT22;9219;50.396;8.546;2023-04-29T05:10:55;9.30;99.90
18189;DHT22;9219;50.396;8.546;2023-04-29T05:13:24;9.30;99.90
18189;DHT22;9219;50.396;8.546;2023-04-29T05:15:51;9.30;99.90
18189;DHT22;9219;50.396;8.546;2023-04-29T05:18:18;9.20;99.90
18189;DHT22;9219;50.396;8.546;2023-04-29T05:20:47;9.10;99.90
18189;DHT22;9219;50.396;8.546;2023-04-29T05:23:13;9.00;99.90
18189;DHT22;9219;50.396;8.546;2023-04-29T05:25:41;9.00;99.90
18189;DHT22;9219;50.396;8.546;2023-04-29T05:33:15;9.20;99.90
18189;DHT22;9219;50.396;8.546;2023-04-29T05:35:44;9.10;99.90
18189;DHT22;9219;50.396;8.546;2023-04-29T05:38:12;8.90;99.90
18189;DHT22;9219;50.396;8.546;2023-04-29T05:40:39;8.80;99.90
18189;DHT22;9219;50.396;8.546;2023-04-29T05:43:06;9.10;99.90
18189;DHT22;9219;50.396;8.546;2023-04-29T05:45:34;9.00;99.90
18189;DHT22;9219;50.396;8.546;2023-04-29T05:48:02;9.00;99.90
18189;DHT22;9219;50.396;8.546;2023-04-29T05:58:18;9.10;99.90
18189;DHT22;9219;50.396;8.546;2023-04-29T06:00:45;9.10;99.90
18189;DHT22;9219;50.396;8.546;2023-04-29T06:03:15;9.00;99.90
18189;DHT22;9219;50.396;8.546;2023-04-29T06:05:43;9.20;99.90
18189;DHT22;9219;50.396;8.546;2023-04-29T06:08:11;9.40;99.90
18189;DHT22;9219;50.396;8.546;2023-04-29T06:10:39;9.20;99.90
18189;DHT22;9219;50.396;8.546;2023-04-29T06:13:06;9.30;99.90
18189;DHT22;9219;50.396;8.546;2023-04-29T06:20:38;9.30;99.90
18189;DHT22;9219;50.396;8.546;2023-04-29T06:23:06;9.30;99.90
18189;DHT22;9219;50.396;8.546;2023-04-29T06:25:33;9.20;99.90
18189;DHT22;9219;50.396;8.546;2023-04-29T06:28:01;9.10;99.90
18189;DHT22;9219;50.396;8.546;2023-04-29T06:30:29;9.10;99.90
18189;DHT22;9219;50.396;8.546;2023-04-29T06:32:56;9.20;99.90
18189;DHT22;9219;50.396;8.546;2023-04-29T06:35:24;9.20;99.90
18189;DHT22;9219;50.396;8.546;2023-04-29T06:37:54;9.40;99.90
18189;DHT22;9219;50.396;8.546;2023-04-29T06:45:27;9.20;99.90
18189;DHT22;9219;50.396;8.546;2023-04-29T06:47:54;9.20;99.90
18189;DHT22;9219;50.396;8.546;2023-04-29T06:50:22;9.00;99.90
18189;DHT22;9219;50.396;8.546;2023-04-29T06:52:50;8.90;99.90
18189;DHT22;9219;50.396;8.546;2023-04-29T06:55:17;9.10;99.90
18189;DHT22;9219;50.396;8.546;2023-04-29T06:57:45;9.10;99.90
18189;DHT22;9219;50.396;8.546;2023-04-29T07:00:13;9.20;99.90
18189;DHT22;9219;50.396;8.546;2023-04-29T07:02:42;9.40;99.90
18189;DHT22;9219;50.396;8.546;2023-04-29T07:10:15;9.50;99.90
18189;DHT22;9219;50.396;8.546;2023-04-29T07:12:42;9.50;99.90
18189;DHT22;9219;50.396;8.546;2023-04-29T07:15:10;9.40;99.90
18189;DHT22;9219;50.396;8.546;2023-04-29T07:17:38;9.60;99.90
18189;DHT22;9219;50.396;8.546;2023-04-29T07:20:06;9.50;99.90
18189;DHT22;9219;50.396;8.546;2023-04-29T07:22:34;9.50;99.90
18189;DHT22;9219;50.396;8.546;2023-04-29T07:25:01;9.50;99.90
18189;DHT22;9219;50.396;8.546;2023-04-29T07:27:33;9.60;99.90
18189;DHT22;9219;50.396;8.546;2023-04-29T07:35:35;9.70;99.90
18189;DHT22;9219;50.396;8.546;2023-04-29T07:38:02;9.50;99.90
18189;DHT22;9219;50.396;8.546;2023-04-29T07:40:29;9.70;99.90
18189;DHT22;9219;50.396;8.546;2023-04-29T07:42:58;9.90;99.90
18189;DHT22;9219;50.396;8.546;2023-04-29T07:45:30;9.80;99.90
18189;DHT22;9219;50.396;8.546;2023-04-29T07:47:58;9.90;99.90
18189;DHT22;9219;50.396;8.546;2023-04-29T07:50:25;9.80;99.90
18189;DHT22;9219;50.396;8.546;2023-04-29T07:55:34;10.00;99.90
18189;DHT22;9219;50.396;8.546;2023-04-29T07:58:03;10.30;99.90
18189;DHT22;9219;50.396;8.546;2023-04-29T08:00:30;10.30;99.90
18189;DHT22;9219;50.396;8.546;2023-04-29T08:02:57;10.40;99.90
18189;DHT22;9219;50.396;8.546;2023-04-29T08:05:25;10.30;99.90
18189;DHT22;9219;50.396;8.546;2023-04-29T08:07:53;10.30;99.90
18189;DHT22;9219;50.396;8.546;2023-04-29T08:10:20;10.40;99.90
18189;DHT22;9219;50.396;8.546;2023-04-29T08:15:29;10.20;99.90
18189;DHT22;9219;50.396;8.546;2023-04-29T08:17:57;10.30;99.90
18189;DHT22;9219;50.396;8.546;2023-04-29T08:20:24;10.30;99.90
18189;DHT22;9219;50.396;8.546;2023-04-29T08:22:52;10.30;99.90
18189;DHT22;9219;50.396;8.546;2023-04-29T08:25:19;10.10;99.90
18189;DHT22;9219;50.396;8.546;2023-04-29T08:27:46;10.20;99.90
18189;DHT22;9219;50.396;8.546;2023-04-29T08:30:18;10.10;99.90
18189;DHT22;9219;50.396;8.546;2023-04-29T08:37:45;10.30;99.90
18189;DHT22;9219;50.396;8.546;2023-04-29T08:40:13;10.40;99.90
18189;DHT22;9219;50.396;8.546;2023-04-29T08:42:42;10.20;99.90
18189;DHT22;9219;50.396;8.546;2023-04-29T08:45:14;10.30;99.90
18189;DHT22;9219;50.396;8.546;2023-04-29T08:47:47;10.50;99.90
18189;DHT22;9219;50.396;8.546;2023-04-29T08:50:16;10.50;99.90
18189;DHT22;9219;50.396;8.546;2023-04-29T08:52:45;10.20;99.90
18189;DHT22;9219;50.396;8.546;2023-04-29T09:00:18;10.30;99.90
18189;DHT22;9219;50.396;8.546;2023-04-29T09:02:49;9.70;99.90
18189;DHT22;9219;50.396;8.546;2023-04-29T09:05:18;9.60;99.90
18189;DHT22;9219;50.396;8.546;2023-04-29T09:07:46;9.60;99.90
18189;DHT22;9219;50.396;8.546;2023-04-29T09:10:14;9.90;99.90
18189;DHT22;9219;50.396;8.546;2023-04-29T09:12:42;10.10;99.90
18189;DHT22;9219;50.396;8.546;2023-04-29T09:15:10;10.00;99.90
18189;DHT22;9219;50.396;8.546;2023-04-29T09:20:49;10.20;99.90
18189;DHT22;9219;50.396;8.546;2023-04-29T09:23:16;10.40;99.90
18189;DHT22;9219;50.396;8.546;2023-04-29T09:25:54;10.40;99.90
18189;DHT22;9219;50.396;8.546;2023-04-29T09:28:22;10.40;99.90
18189;DHT22;9219;50.396;8.546;2023-04-29T09:30:49;10.60;99.90
18189;DHT22;9219;50.396;8.546;2023-04-29T09:33:16;10.70;99.90
18189;DHT22;9219;50.396;8.546;2023-04-29T09:35:44;11.00;99.90
18189;DHT22;9219;50.396;8.546;2023-04-29T09:43:20;11.20;99.90
18189;DHT22;9219;50.396;8.546;2023-04-29T09:45:50;11.00;99.90
18189;DHT22;9219;50.396;8.546;2023-04-29T09:48:19;11.10;99.90
18189;DHT22;9219;50.396;8.546;2023-04-29T09:50:59;11.20;99.90
18189;DHT22;9219;50.396;8.546;2023-04-29T09:53:29;11.60;99.90
18189;DHT22;9219;50.396;8.546;2023-04-29T09:56:04;11.90;99.90
18189;DHT22;9219;50.396;8.546;2023-04-29T09:58:35;11.90;99.90
18189;DHT22;9219;50.396;8.546;2023-04-29T10:06:03;11.80;99.90
18189;DHT22;9219;50.396;8.546;2023-04-29T10:08:32;12.10;99.90
18189;DHT22;9219;50.396;8.546;2023-04-29T10:11:01;12.30;99.90
18189;DHT22;9219;50.396;8.546;2023-04-29T10:13:31;12.20;99.90
18189;DHT22;9219;50.396;8.546;2023-04-29T10:16:06;12.40;99.90
18189;DHT22;9219;50.396;8.546;2023-04-29T10:18:40;12.40;99.90
18189;DHT22;9219;50.396;8.546;2023-04-29T10:21:13;12.70;99.90
18189;DHT22;9219;50.396;8.546;2023-04-29T10:28:46;12.80;99.90
18189;DHT22;9219;50.396;8.546;2023-04-29T10:31:13;13.00;99.90
18189;DHT22;9219;50.396;8.546;2023-04-29T10:33:43;13.20;99.90
18189;DHT22;9219;50.396;8.546;2023-04-29T10:36:14;13.10;99.90
18189;DHT22;9219;50.396;8.546;2023-04-29T10:38:45;13.00;99.90
18189;DHT22;9219;50.396;8.546;2023-04-29T10:41:18;12.50;99.90
18189;DHT22;9219;50.396;8.546;2023-04-29T10:43:49;12.40;99.90
18189;DHT22;9219;50.396;8.546;2023-04-29T10:46:18;12.40;99.90
18189;DHT22;9219;50.396;8.546;2023-04-29T10:54:05;12.40;99.90
18189;DHT22;9219;50.396;8.546;2023-04-29T10:56:41;12.30;99.90
18189;DHT22;9219;50.396;8.546;2023-04-29T10:59:12;12.30;99.90
18189;DHT22;9219;50.396;8.546;2023-04-29T11:01:41;12.50;99.90
18189;DHT22;9219;50.396;8.546;2023-04-29T11:04:08;12.50;99.90
18189;DHT22;9219;50.396;8.546;2023-04-29T11:06:40;12.60;99.90
18189;DHT22;9219;50.396;8.546;2023-04-29T11:09:10;12.70;99.90
18189;DHT22;9219;50.396;8.546;2023-04-29T11:16:53;12.50;99.90
18189;DHT22;9219;50.396;8.546;2023-04-29T11:19:25;12.70;99.90
18189;DHT22;9219;50.396;8.546;2023-04-29T11:22:13;12.50;99.90
18189;DHT22;9219;50.396;8.546;2023-04-29T11:24:51;12.50;99.90
18189;DHT22;9219;50.396;8.546;2023-04-29T11:27:24;12.70;99.90
18189;DHT22;9219;50.396;8.546;2023-04-29T11:29:54;12.70;99.90
18189;DHT22;9219;50.396;8.546;2023-04-29T11:32:24;12.60;99.90
18189;DHT22;9219;50.396;8.546;2023-04-29T11:37:44;12.90;99.90
18189;DHT22;9219;50.396;8.546;2023-04-29T11:40:12;12.80;99.90
18189;DHT22;9219;50.396;8.546;2023-04-29T11:42:42;12.80;99.90
18189;DHT22;9219;50.396;8.546;2023-04-29T11:45:10;12.60;99.90
18189;DHT22;9219;50.396;8.546;2023-04-29T11:47:42;12.60;99.90
18189;DHT22;9219;50.396;8.546;2023-04-29T11:50:11;12.50;99.90
18189;DHT22;9219;50.396;8.546;2023-04-29T11:52:38;12.30;99.90
18189;DHT22;9219;50.396;8.546;2023-04-29T11:57:48;12.20;99.90
18189;DHT22;9219;50.396;8.546;2023-04-29T12:00:16;12.40;99.90
18189;DHT22;9219;50.396;8.546;2023-04-29T12:02:44;12.40;99.90
18189;DHT22;9219;50.396;8.546;2023-04-29T12:05:14;12.20;99.90
18189;DHT22;9219;50.396;8.546;2023-04-29T12:07:43;12.00;99.90
18189;DHT22;9219;50.396;8.546;2023-04-29T12:10:11;12.00;99.90
18189;DHT22;9219;50.396;8.546;2023-04-29T12:12:39;12.50;99.90
18189;DHT22;9219;50.396;8.546;2023-04-29T12:20:14;12.40;99.90
18189;DHT22;9219;50.396;8.546;2023-04-29T12:22:41;12.60;99.90
18189;DHT22;9219;50.396;8.546;2023-04-29T12:25:10;12.50;99.90
18189;DHT22;9219;50.396;8.546;2023-04-29T12:27:39;12.50;99.90
18189;DHT22;9219;50.396;8.546;2023-04-29T12:30:08;12.70;99.90
18189;DHT22;9219;50.396;8.546;2023-04-29T12:32:36;12.80;99.90
18189;DHT22;9219;50.396;8.546;2023-04-29T12:35:04;12.70;99.90
18189;DHT22;9219;50.396;8.546;2023-04-29T12:40:26;12.50;99.90
18189;DHT22;9219;50.396;8.546;2023-04-29T12:42:56;12.30;99.90
18189;DHT22;9219;50.396;8.546;2023-04-29T12:45:28;12.40;99.90
18189;DHT22;9219;50.396;8.546;2023-04-29T12:47:56;12.70;99.90
18189;DHT22;9219;50.396;8.546;2023-04-29T12:50:31;12.90;99.90
18189;DHT22;9219;50.396;8.546;2023-04-29T12:52:59;12.80;99.90
18189;DHT22;9219;50.396;8.546;2023-04-29T12:55:31;12.70;99.90
18189;DHT22;9219;50.396;8.546;2023-04-29T13:00:40;12.30;99.90
18189;DHT22;9219;50.396;8.546;2023-04-29T13:03:07;12.30;99.90
18189;DHT22;9219;50.396;8.546;2023-04-29T13:05:35;12.10;99.90
18189;DHT22;9219;50.396;8.546;2023-04-29T13:08:03;12.30;99.90
18189;DHT22;9219;50.396;8.546;2023-04-29T13:10:32;12.50;99.90
18189;DHT22;9219;50.396;8.546;2023-04-29T13:13:00;12.80;99.90
18189;DHT22;9219;50.396;8.546;2023-04-29T13:15:32;12.70;99.90
18189;DHT22;9219;50.396;8.546;2023-04-29T13:20:56;12.40;99.90
18189;DHT22;9219;50.396;8.546;2023-04-29T13:23:26;12.50;99.90
18189;DHT22;9219;50.396;8.546;2023-04-29T13:25:54;12.70;99.90
18189;DHT22;9219;50.396;8.546;2023-04-29T13:28:22;12.50;99.90
18189;DHT22;9219;50.396;8.546;2023-04-29T13:30:50;12.40;99.90
18189;DHT22;9219;50.396;8.546;2023-04-29T13:33:18;12.30;99.90
18189;DHT22;9219;50.396;8.546;2023-04-29T13:35:46;12.40;99.90
18189;DHT22;9219;50.396;8.546;2023-04-29T13:41:07;12.40;99.90
18189;DHT22;9219;50.396;8.546;2023-04-29T13:43:42;12.50;99.90
18189;DHT22;9219;50.396;8.546;2023-04-29T13:46:09;12.60;99.90
18189;DHT22;9219;50.396;8.546;2023-04-29T13:48:37;12.50;99.90
18189;DHT22;9219;50.396;8.546;2023-04-29T13:51:07;12.40;99.90
18189;DHT22;9219;50.396;8.546;2023-04-29T13:53:38;12.50;99.90
18189;DHT22;9219;50.396;8.546;2023-04-29T13:56:26;12.60;99.90
18189;DHT22;9219;50.396;8.546;2023-04-29T14:04:21;12.70;99.90
18189;DHT22;9219;50.396;8.546;2023-04-29T14:06:49;12.70;99.90
18189;DHT22;9219;50.396;8.546;2023-04-29T14:09:16;12.70;99.90
18189;DHT22;9219;50.396;8.546;2023-04-29T14:11:43;12.60;99.90
18189;DHT22;9219;50.396;8.546;2023-04-29T14:14:11;12.40;99.90
18189;DHT22;9219;50.396;8.546;2023-04-29T14:16:39;12.20;99.90
18189;DHT22;9219;50.396;8.546;2023-04-29T14:19:06;12.20;99.90
18189;DHT22;9219;50.396;8.546;2023-04-29T14:24:14;12.20;99.90
18189;DHT22;9219;50.396;8.546;2023-04-29T14:26:41;12.20;99.90
18189;DHT22;9219;50.396;8.546;2023-04-29T14:29:09;12.10;99.90
18189;DHT22;9219;50.396;8.546;2023-04-29T14:31:36;12.20;99.90
18189;DHT22;9219;50.396;8.546;2023-04-29T14:34:04;12.30;99.90
18189;DHT22;9219;50.396;8.546;2023-04-29T14:36:31;12.10;99.90
18189;DHT22;9219;50.396;8.546;2023-04-29T14:38:59;11.90;99.90
18189;DHT22;9219;50.396;8.546;2023-04-29T14:41:28;11.90;99.90
18189;DHT22;9219;50.396;8.546;2023-04-29T14:49:01;12.00;99.90
18189;DHT22;9219;50.396;8.546;2023-04-29T14:51:28;11.90;99.90
18189;DHT22;9219;50.396;8.546;2023-04-29T14:53:56;11.80;99.90
18189;DHT22;9219;50.396;8.546;2023-04-29T14:56:23;11.90;99.90
18189;DHT22;9219;50.396;8.546;2023-04-29T14:58:51;11.90;99.90
18189;DHT22;9219;50.396;8.546;2023-04-29T15:01:19;12.00;99.90
18189;DHT22;9219;50.396;8.546;2023-04-29T15:03:47;11.90;99.90
18189;DHT22;9219;50.396;8.546;2023-04-29T15:13:57;11.50;99.90
18189;DHT22;9219;50.396;8.546;2023-04-29T15:16:25;11.50;99.90
18189;DHT22;9219;50.396;8.546;2023-04-29T15:18:53;11.50;99.90
18189;DHT22;9219;50.396;8.546;2023-04-29T15:21:21;11.60;99.90
18189;DHT22;9219;50.396;8.546;2023-04-29T15:23:48;11.60;99.90
18189;DHT22;9219;50.396;8.546;2023-04-29T15:26:15;11.40;99.90
18189;DHT22;9219;50.396;8.546;2023-04-29T15:28:42;11.60;99.90
18189;DHT22;9219;50.396;8.546;2023-04-29T15:31:12;11.50;99.90
18189;DHT22;9219;50.396;8.546;2023-04-29T15:38:30;11.30;99.90
18189;DHT22;9219;50.396;8.546;2023-04-29T15:41:05;11.40;99.90
18189;DHT22;9219;50.396;8.546;2023-04-29T15:43:34;11.40;99.90
18189;DHT22;9219;50.396;8.546;2023-04-29T15:46:18;11.60;99.90
18189;DHT22;9219;50.396;8.546;2023-04-29T15:48:55;11.60;99.90
18189;DHT22;9219;50.396;8.546;2023-04-29T15:51:25;11.80;99.90
18189;DHT22;9219;50.396;8.546;2023-04-29T15:53:53;11.90;99.90
18189;DHT22;9219;50.396;8.546;2023-04-29T15:56:29;11.80;99.90
18189;DHT22;9219;50.396;8.546;2023-04-29T15:58:59;11.60;99.90
18189;DHT22;9219;50.396;8.546;2023-04-29T16:05:24;11.40;99.90
18189;DHT22;9219;50.396;8.546;2023-04-29T16:07:52;11.20;99.90
18189;DHT22;9219;50.396;8.546;2023-04-29T16:10:19;11.40;99.90
18189;DHT22;9219;50.396;8.546;2023-04-29T16:12:48;11.30;99.90
18189;DHT22;9219;50.396;8.546;2023-04-29T16:15:15;11.00;99.90
18189;DHT22;9219;50.396;8.546;2023-04-29T16:17:43;11.20;99.90
18189;DHT22;9219;50.396;8.546;2023-04-29T16:20:10;11.30;99.90
18189;DHT22;9219;50.396;8.546;2023-04-29T16:22:39;11.30;99.90
18189;DHT22;9219;50.396;8.546;2023-04-29T16:28:15;11.10;99.90
18189;DHT22;9219;50.396;8.546;2023-04-29T16:30:43;10.80;99.90
18189;DHT22;9219;50.396;8.546;2023-04-29T16:33:10;10.90;99.90
18189;DHT22;9219;50.396;8.546;2023-04-29T16:35:39;11.00;99.90
18189;DHT22;9219;50.396;8.546;2023-04-29T16:38:06;10.90;99.90
18189;DHT22;9219;50.396;8.546;2023-04-29T16:40:34;10.90;99.90
18189;DHT22;9219;50.396;8.546;2023-04-29T16:43:01;10.80;99.90
18189;DHT22;9219;50.396;8.546;2023-04-29T16:48:36;10.90;99.90
18189;DHT22;9219;50.396;8.546;2023-04-29T16:51:03;10.90;99.90
18189;DHT22;9219;50.396;8.546;2023-04-29T16:53:31;10.90;99.90
18189;DHT22;9219;50.396;8.546;2023-04-29T16:55:59;11.10;99.90
18189;DHT22;9219;50.396;8.546;2023-04-29T16:58:26;11.30;99.90
18189;DHT22;9219;50.396;8.546;2023-04-29T17:00:54;11.30;99.90
18189;DHT22;9219;50.396;8.546;2023-04-29T17:03:21;11.20;99.90
18189;DHT22;9219;50.396;8.546;2023-04-29T17:05:50;11.10;99.90
18189;DHT22;9219;50.396;8.546;2023-04-29T17:13:38;11.40;99.90
18189;DHT22;9219;50.396;8.546;2023-04-29T17:16:06;11.20;99.90
18189;DHT22;9219;50.396;8.546;2023-04-29T17:18:33;11.00;99.90
18189;DHT22;9219;50.396;8.546;2023-04-29T17:21:02;11.20;99.90
18189;DHT22;9219;50.396;8.546;2023-04-29T17:23:29;11.00;99.90
18189;DHT22;9219;50.396;8.546;2023-04-29T17:25:57;11.30;99.90
18189;DHT22;9219;50.396;8.546;2023-04-29T17:28:24;11.40;99.90
18189;DHT22;9219;50.396;8.546;2023-04-29T17:30:53;11.30;99.90
18189;DHT22;9219;50.396;8.546;2023-04-29T17:38:30;11.10;99.90
18189;DHT22;9219;50.396;8.546;2023-04-29T17:41:01;11.20;99.90
18189;DHT22;9219;50.396;8.546;2023-04-29T17:43:29;11.30;99.90
18189;DHT22;9219;50.396;8.546;2023-04-29T17:45:58;11.60;99.90
18189;DHT22;9219;50.396;8.546;2023-04-29T17:48:25;11.50;99.90
18189;DHT22;9219;50.396;8.546;2023-04-29T17:50:54;11.20;99.90
18189;DHT22;9219;50.396;8.546;2023-04-29T17:53:21;10.80;99.90
18189;DHT22;9219;50.396;8.546;2023-04-29T18:00:53;10.60;99.90
18189;DHT22;9219;50.396;8.546;2023-04-29T18:03:21;10.80;99.90
18189;DHT22;9219;50.396;8.546;2023-04-29T18:05:49;10.80;99.90
18189;DHT22;9219;50.396;8.546;2023-04-29T18:08:16;10.50;99.90
18189;DHT22;9219;50.396;8.546;2023-04-29T18:10:44;10.60;99.90
18189;DHT22;9219;50.396;8.546;2023-04-29T18:13:11;10.90;99.90
18189;DHT22;9219;50.396;8.546;2023-04-29T18:15:38;10.80;99.90
18189;DHT22;9219;50.396;8.546;2023-04-29T18:18:07;10.60;99.90
18189;DHT22;9219;50.396;8.546;2023-04-29T18:26:09;10.60;99.90
18189;DHT22;9219;50.396;8.546;2023-04-29T18:28:36;10.80;99.90
18189;DHT22;9219;50.396;8.546;2023-04-29T18:31:04;10.70;99.90
18189;DHT22;9219;50.396;8.546;2023-04-29T18:33:32;10.70;99.90
18189;DHT22;9219;50.396;8.546;2023-04-29T18:36:02;10.60;99.90
18189;DHT22;9219;50.396;8.546;2023-04-29T18:38:29;10.70;99.90
18189;DHT22;9219;50.396;8.546;2023-04-29T18:40:57;10.70;99.90
18189;DHT22;9219;50.396;8.546;2023-04-29T18:43:25;10.60;99.90
18189;DHT22;9219;50.396;8.546;2023-04-29T18:50:59;10.70;99.90
18189;DHT22;9219;50.396;8.546;2023-04-29T18:53:29;10.80;99.90
18189;DHT22;9219;50.396;8.546;2023-04-29T18:55:56;11.00;99.90
18189;DHT22;9219;50.396;8.546;2023-04-29T18:58:23;11.20;99.90
18189;DHT22;9219;50.396;8.546;2023-04-29T19:00:52;11.20;99.90
18189;DHT22;9219;50.396;8.546;2023-04-29T19:03:19;11.10;99.90
18189;DHT22;9219;50.396;8.546;2023-04-29T19:05:47;11.00;99.90
18189;DHT22;9219;50.396;8.546;2023-04-29T19:10:56;10.90;99.90
18189;DHT22;9219;50.396;8.546;2023-04-29T19:13:27;11.00;99.90
18189;DHT22;9219;50.396;8.546;2023-04-29T19:15:55;11.00;99.90
18189;DHT22;9219;50.396;8.546;2023-04-29T19:18:22;11.40;99.90
18189;DHT22;9219;50.396;8.546;2023-04-29T19:20:50;11.30;99.90
18189;DHT22;9219;50.396;8.546;2023-04-29T19:23:18;11.20;99.90
18189;DHT22;9219;50.396;8.546;2023-04-29T19:25:46;11.00;99.90
18189;DHT22;9219;50.396;8.546;2023-04-29T19:31:31;11.10;99.90
18189;DHT22;9219;50.396;8.546;2023-04-29T19:33:58;11.10;99.90
18189;DHT22;9219;50.396;8.546;2023-04-29T19:36:26;11.10;99.90
18189;DHT22;9219;50.396;8.546;2023-04-29T19:38:53;11.10;99.90
18189;DHT22;9219;50.396;8.546;2023-04-29T19:41:22;11.10;99.90
18189;DHT22;9219;50.396;8.546;2023-04-29T19:43:50;11.10;99.90
18189;DHT22;9219;50.396;8.546;2023-04-29T19:46:17;11.30;99.90